Ouaquaga, NY (13826)

08:34 AM EST die 27o February, anno 2017 (GMT -0500)
Overlook Gardens | | Change Station
Active Advisory: Flood Warning

Elev 1293 ft 42.09 °N, 75.80 °W | Updated 33 seconds ago

Plerumque Nubila
Plerumque Nubila
36.1 °F
Feels Like 36 °F
N
1.1
Ventus Variabilis Ventus from Magis Eurus quam Aquilo

Hodie
High -- | Low -- °F
--% Chance of Precip.
Yesterday
High -- | Low -- °F
Precip. -- in
Pressio 30.30 in
Visibilitas 10.0 milia passuum
Clouds Serena
Frigus Venti 36 °F
Frigus in quo Ros apparet 16 °F
Umor 44%
Rainfall 0.00 in
Snow Depth Not available.
6:40 AM 5:50 PM
New, 1% visible
METAR KBGM 271253Z AUTO 22012KT 10SM CLR M01/M10 A3023 RMK AO2 SLP258 T10061100
Pressio 30.30 in
Visibilitas 10.0 milia passuum
Clouds Serena
Frigus Venti 36 °F
Frigus in quo Ros apparet 16 °F
Umor 44%
Rainfall 0.00 in
Snow Depth Not available.
6:40 AM 5:50 PM
New, 1% visible
METAR KBGM 271253Z AUTO 22012KT 10SM CLR M01/M10 A3023 RMK AO2 SLP258 T10061100

Get Your Daily Forecast Email!

Thanks for signing up!

Be on the lookout for a verification email in your inbox.

You'll start receiving the daily forecast at 8 AM.

×

10-Day Weather Forecast

Almanac

Astronomy

Feb. 27, 2017 Rise Set
Actual Time
Civil Twilight
Nautical Twilight
Astronomical Twilight
Moon
Length Of Visible Light
Length of Day
Tomorrow will be .
, % of the Moon is Illuminated

Today's Extremes

State Highs State Lows

Community

WunderPhotos

Upload Photos

1,962,540 photos uploaded!

WunderBlog® & News

Nearby

Air Quality

  Air Quality AQ Index Pollutant
Not available.

Snow Depth

Station Depth Elevation

Earthquake Activity

City Distance Mag. Time & Date
Minimum magnitude displayed is 2.5.

Coastal Water Temperatures

Locus Calor

Stations

Nearby Weather Stations

Station Location Temp Frigus Venti Frigus in quo Ros apparet Umor Ventus Precip. Elev Renovata Type
                   

Watches & Warnings

Flood Warning
Issued: 9:53 PM EST Feb. 26, 2017 – National Weather Service

The Flood Warning continues for
the Susquehanna River at Conklin.
* Until late Monday night.
* At 9 PM Sunday the stage was 12.6 feet.
* Flood stage is 12.0 feet.
* Minor flooding is occurring and minor flooding is forecast.
* Forecast... the river will continue to fall to below flood stage after 1 PM
Monday.
* Impact... at 12.0 feet... flood stage. Alta, river and Lawrence roads closed in
the town of Conklin due to minor flooding. No homes are flooded at this river
Stage. Valley park in Kirkwood takes on water.


Lat... Lon 4211 7587 4210 7582 4198 7572 4195 7558
      4194 7574 4209 7587